Jomo Kenyatta International Airport


Codes: HKJK/NBO
Name: Jomo Kenyatta International Airport
City: Nairobi
Country: Kenya
Elevation: 5330 ft.
Website:
Wikipedia:

Photos at Jomo Kenyatta International Airport


   Photos courtesy of SpottingLog. You can add your own sightings and photos by signing up for a free trial today.



No photos found.

Weather at Jomo Kenyatta International Airport


Time (UTC)DescriptionTempratureWindCloud coverageVisibilityPressureHumidity
21-Feb-2024 03:00Broken Clouds18°C4 mph, NE59%10000m1017hPa84%
21-Feb-2024 06:00Broken Clouds20°C9 mph, NE58%10000m1017hPa74%
21-Feb-2024 09:00Scattered Clouds26°C13 mph, NE29%10000m1013hPa44%
21-Feb-2024 12:00Few Clouds30°C16 mph, NE23%10000m1008hPa28%
21-Feb-2024 15:00Overcast Clouds27°C16 mph, NE96%10000m1009hPa31%
21-Feb-2024 18:00Overcast Clouds21°C13 mph, NE95%10000m1013hPa55%
21-Feb-2024 21:00Overcast Clouds19°C11 mph, NE100%10000m1014hPa65%
22-Feb-2024 00:00Overcast Clouds17°C9 mph, NE100%10000m1013hPa69%
22-Feb-2024 03:00Overcast Clouds16°C9 mph, NE92%10000m1015hPa73%
22-Feb-2024 06:00Overcast Clouds20°C13 mph, NE87%10000m1016hPa65%
22-Feb-2024 09:00Broken Clouds26°C18 mph, NE82%10000m1012hPa38%
22-Feb-2024 12:00Overcast Clouds28°C18 mph, NE91%10000m1008hPa30%
22-Feb-2024 15:00Overcast Clouds25°C18 mph, NE100%10000m1009hPa38%
22-Feb-2024 18:00Overcast Clouds21°C13 mph, NE100%10000m1013hPa50%
22-Feb-2024 21:00Overcast Clouds19°C11 mph, NE100%10000m1014hPa58%
23-Feb-2024 00:00Overcast Clouds17°C11 mph, NE100%10000m1014hPa65%
23-Feb-2024 03:00Overcast Clouds15°C7 mph, NE100%10000m1016hPa92%
23-Feb-2024 06:00Overcast Clouds18°C13 mph, NE100%10000m1017hPa75%
23-Feb-2024 09:00Light Rain24°C18 mph, NE100%10000m1014hPa46%
23-Feb-2024 12:00Overcast Clouds26°C18 mph, NE100%10000m1010hPa36%
23-Feb-2024 15:00Overcast Clouds23°C18 mph, NE86%10000m1012hPa42%
23-Feb-2024 18:00Overcast Clouds18°C9 mph, NE87%10000m1016hPa73%
23-Feb-2024 21:00Broken Clouds17°C9 mph, NE84%10000m1016hPa76%
24-Feb-2024 00:00Broken Clouds17°C7 mph, NE82%10000m1014hPa72%
24-Feb-2024 03:00Overcast Clouds17°C4 mph, NE98%10000m1015hPa74%
24-Feb-2024 06:00Overcast Clouds21°C9 mph, NE89%10000m1016hPa63%
24-Feb-2024 09:00Overcast Clouds24°C16 mph, E87%10000m1014hPa51%
24-Feb-2024 12:00Overcast Clouds21°C13 mph, E94%10000m1012hPa64%
24-Feb-2024 15:00Overcast Clouds20°C11 mph, E100%10000m1013hPa71%
24-Feb-2024 18:00Overcast Clouds19°C4 mph, E100%10000m1015hPa76%
24-Feb-2024 21:00Overcast Clouds18°C2 mph, E97%10000m1017hPa81%
25-Feb-2024 00:00Light Rain17°C2 mph, E98%10000m1015hPa86%
25-Feb-2024 03:00Overcast Clouds16°C4 mph, NE100%10000m1016hPa90%
25-Feb-2024 06:00Overcast Clouds20°C7 mph, NE98%10000m1016hPa70%
25-Feb-2024 09:00Broken Clouds27°C11 mph, NE73%10000m1013hPa35%
25-Feb-2024 12:00Overcast Clouds29°C13 mph, E86%10000m1009hPa30%
25-Feb-2024 15:00Overcast Clouds24°C16 mph, E100%10000m1010hPa49%
25-Feb-2024 18:00Overcast Clouds19°C11 mph, E100%10000m1015hPa73%
25-Feb-2024 21:00Overcast Clouds19°C7 mph, NE99%10000m1015hPa76%
26-Feb-2024 00:00Overcast Clouds17°C4 mph, NE100%10000m1014hPa87%